sensor_id;sensor_type;location;lat;lon;timestamp;temperature;humidity
20246;DHT22;10281;54.406;18.556;2024-01-15T00:00:51;3.00;99.90
20246;DHT22;10281;54.406;18.556;2024-01-15T00:03:18;3.10;99.90
20246;DHT22;10281;54.406;18.556;2024-01-15T00:05:44;3.10;99.90
20246;DHT22;10281;54.406;18.556;2024-01-15T00:08:11;3.00;99.90
20246;DHT22;10281;54.406;18.556;2024-01-15T00:10:38;3.00;99.90
20246;DHT22;10281;54.406;18.556;2024-01-15T14:54:39;0.10;99.90
20246;DHT22;10281;54.406;18.556;2024-01-15T14:57:07;-0.10;99.90
20246;DHT22;10281;54.406;18.556;2024-01-15T14:59:34;-0.10;99.90
20246;DHT22;10281;54.406;18.556;2024-01-15T15:02:00;-0.10;99.90
20246;DHT22;10281;54.406;18.556;2024-01-15T15:04:27;0.00;99.90
20246;DHT22;10281;54.406;18.556;2024-01-15T15:06:54;0.10;99.90
20246;DHT22;10281;54.406;18.556;2024-01-15T15:09:21;0.10;99.90
20246;DHT22;10281;54.406;18.556;2024-01-15T15:11:47;0.20;99.90
20246;DHT22;10281;54.406;18.556;2024-01-15T15:14:14;0.20;99.90
20246;DHT22;10281;54.406;18.556;2024-01-15T15:16:40;0.20;99.90
20246;DHT22;10281;54.406;18.556;2024-01-15T15:19:08;0.20;99.90
20246;DHT22;10281;54.406;18.556;2024-01-15T15:21:35;0.30;99.90
20246;DHT22;10281;54.406;18.556;2024-01-15T15:24:01;0.30;99.90
20246;DHT22;10281;54.406;18.556;2024-01-15T15:26:28;0.30;99.90
20246;DHT22;10281;54.406;18.556;2024-01-15T15:28:54;0.30;99.90
20246;DHT22;10281;54.406;18.556;2024-01-15T15:31:21;0.40;99.90
20246;DHT22;10281;54.406;18.556;2024-01-15T15:33:48;0.40;99.90
20246;DHT22;10281;54.406;18.556;2024-01-15T15:36:14;0.40;99.90
20246;DHT22;10281;54.406;18.556;2024-01-15T15:38:41;0.40;99.90
20246;DHT22;10281;54.406;18.556;2024-01-15T15:41:07;0.40;99.90
20246;DHT22;10281;54.406;18.556;2024-01-15T15:43:34;0.50;99.90
20246;DHT22;10281;54.406;18.556;2024-01-15T15:46:01;0.50;99.90
20246;DHT22;10281;54.406;18.556;2024-01-15T15:48:27;0.50;99.90
20246;DHT22;10281;54.406;18.556;2024-01-15T15:50:54;0.40;99.90
20246;DHT22;10281;54.406;18.556;2024-01-15T15:53:21;0.50;99.90
20246;DHT22;10281;54.406;18.556;2024-01-15T15:55:48;0.50;99.90
20246;DHT22;10281;54.406;18.556;2024-01-15T15:58:14;0.40;99.90
20246;DHT22;10281;54.406;18.556;2024-01-15T16:00:41;0.50;99.90
20246;DHT22;10281;54.406;18.556;2024-01-15T16:03:08;0.50;99.90
20246;DHT22;10281;54.406;18.556;2024-01-15T16:05:34;0.50;99.90
20246;DHT22;10281;54.406;18.556;2024-01-15T16:08:01;0.50;99.90
20246;DHT22;10281;54.406;18.556;2024-01-15T16:10:28;0.50;99.90
20246;DHT22;10281;54.406;18.556;2024-01-15T16:12:55;0.50;99.90
20246;DHT22;10281;54.406;18.556;2024-01-15T16:15:22;0.40;99.90
20246;DHT22;10281;54.406;18.556;2024-01-15T16:17:50;0.40;99.90
20246;DHT22;10281;54.406;18.556;2024-01-15T16:20:17;0.40;99.90
20246;DHT22;10281;54.406;18.556;2024-01-15T16:22:44;0.50;99.90
20246;DHT22;10281;54.406;18.556;2024-01-15T16:25:11;0.40;99.90
20246;DHT22;10281;54.406;18.556;2024-01-15T16:27:38;0.40;99.90
20246;DHT22;10281;54.406;18.556;2024-01-15T16:30:07;0.40;99.90
20246;DHT22;10281;54.406;18.556;2024-01-15T16:32:35;0.30;99.90
20246;DHT22;10281;54.406;18.556;2024-01-15T16:35:02;0.40;99.90
20246;DHT22;10281;54.406;18.556;2024-01-15T16:37:28;0.30;99.90
20246;DHT22;10281;54.406;18.556;2024-01-15T16:39:55;0.30;99.90
20246;DHT22;10281;54.406;18.556;2024-01-15T16:42:22;0.20;99.90
20246;DHT22;10281;54.406;18.556;2024-01-15T16:44:48;0.30;99.90
20246;DHT22;10281;54.406;18.556;2024-01-15T16:47:15;0.20;99.90
20246;DHT22;10281;54.406;18.556;2024-01-15T16:49:42;0.20;99.90
20246;DHT22;10281;54.406;18.556;2024-01-15T16:52:08;0.20;99.90
20246;DHT22;10281;54.406;18.556;2024-01-15T16:54:35;0.20;99.90
20246;DHT22;10281;54.406;18.556;2024-01-15T16:57:02;0.20;99.90
20246;DHT22;10281;54.406;18.556;2024-01-15T16:59:28;0.20;99.90
20246;DHT22;10281;54.406;18.556;2024-01-15T17:01:56;0.20;99.90
20246;DHT22;10281;54.406;18.556;2024-01-15T17:04:23;0.20;99.90
20246;DHT22;10281;54.406;18.556;2024-01-15T17:06:50;0.20;99.90
20246;DHT22;10281;54.406;18.556;2024-01-15T17:09:16;0.20;99.90
20246;DHT22;10281;54.406;18.556;2024-01-15T17:11:43;0.20;99.90
20246;DHT22;10281;54.406;18.556;2024-01-15T17:14:09;0.20;99.90
20246;DHT22;10281;54.406;18.556;2024-01-15T17:16:36;0.20;99.90
20246;DHT22;10281;54.406;18.556;2024-01-15T17:19:03;0.10;99.90
20246;DHT22;10281;54.406;18.556;2024-01-15T17:21:29;0.10;99.90
20246;DHT22;10281;54.406;18.556;2024-01-15T17:23:56;0.00;99.90
20246;DHT22;10281;54.406;18.556;2024-01-15T17:26:22;0.10;99.90
20246;DHT22;10281;54.406;18.556;2024-01-15T17:28:49;0.10;99.90
20246;DHT22;10281;54.406;18.556;2024-01-15T17:31:16;0.00;99.90
20246;DHT22;10281;54.406;18.556;2024-01-15T17:33:43;0.00;99.90
20246;DHT22;10281;54.406;18.556;2024-01-15T17:36:09;0.00;99.90
20246;DHT22;10281;54.406;18.556;2024-01-15T17:38:36;0.00;99.90
20246;DHT22;10281;54.406;18.556;2024-01-15T17:41:02;-0.10;99.90
20246;DHT22;10281;54.406;18.556;2024-01-15T17:43:29;-0.10;99.90
20246;DHT22;10281;54.406;18.556;2024-01-15T17:45:55;-0.20;99.90
20246;DHT22;10281;54.406;18.556;2024-01-15T17:48:24;-0.20;99.90
20246;DHT22;10281;54.406;18.556;2024-01-15T17:50:51;-0.20;99.90
20246;DHT22;10281;54.406;18.556;2024-01-15T17:53:17;-0.20;99.90
20246;DHT22;10281;54.406;18.556;2024-01-15T17:55:44;-0.20;99.90
20246;DHT22;10281;54.406;18.556;2024-01-15T17:58:11;-0.30;99.90
20246;DHT22;10281;54.406;18.556;2024-01-15T18:00:37;-0.20;99.90
20246;DHT22;10281;54.406;18.556;2024-01-15T18:03:05;-0.30;99.90
20246;DHT22;10281;54.406;18.556;2024-01-15T18:05:32;-0.30;99.90
20246;DHT22;10281;54.406;18.556;2024-01-15T18:07:59;-0.30;99.90
20246;DHT22;10281;54.406;18.556;2024-01-15T18:10:25;-0.20;99.90
20246;DHT22;10281;54.406;18.556;2024-01-15T18:12:52;-0.30;99.90
20246;DHT22;10281;54.406;18.556;2024-01-15T18:15:19;-0.30;99.90
20246;DHT22;10281;54.406;18.556;2024-01-15T18:17:46;-0.40;99.90
20246;DHT22;10281;54.406;18.556;2024-01-15T18:20:13;-0.50;99.90
20246;DHT22;10281;54.406;18.556;2024-01-15T18:22:40;-0.50;99.90
20246;DHT22;10281;54.406;18.556;2024-01-15T18:25:07;-0.60;99.90
20246;DHT22;10281;54.406;18.556;2024-01-15T18:27:34;-0.60;99.90
20246;DHT22;10281;54.406;18.556;2024-01-15T18:30:01;-0.60;99.90
20246;DHT22;10281;54.406;18.556;2024-01-15T18:32:27;-0.60;99.90
20246;DHT22;10281;54.406;18.556;2024-01-15T18:34:54;-0.70;99.90
20246;DHT22;10281;54.406;18.556;2024-01-15T18:37:21;-0.70;99.90
20246;DHT22;10281;54.406;18.556;2024-01-15T18:39:48;-0.80;99.90
20246;DHT22;10281;54.406;18.556;2024-01-15T18:42:14;-0.70;99.90
20246;DHT22;10281;54.406;18.556;2024-01-15T18:44:41;-0.70;99.90
20246;DHT22;10281;54.406;18.556;2024-01-15T18:47:08;-0.90;99.90
20246;DHT22;10281;54.406;18.556;2024-01-15T18:49:34;-1.00;99.90
20246;DHT22;10281;54.406;18.556;2024-01-15T18:52:02;-1.00;99.90
20246;DHT22;10281;54.406;18.556;2024-01-15T18:54:28;-1.00;99.90
20246;DHT22;10281;54.406;18.556;2024-01-15T18:56:55;-1.10;99.90
20246;DHT22;10281;54.406;18.556;2024-01-15T18:59:21;-1.10;99.90
20246;DHT22;10281;54.406;18.556;2024-01-15T19:01:49;-1.20;99.90
20246;DHT22;10281;54.406;18.556;2024-01-15T19:04:16;-1.30;99.90
20246;DHT22;10281;54.406;18.556;2024-01-15T19:06:43;-1.30;99.90
20246;DHT22;10281;54.406;18.556;2024-01-15T19:09:09;-1.40;99.90
20246;DHT22;10281;54.406;18.556;2024-01-15T19:11:36;-1.40;99.90
20246;DHT22;10281;54.406;18.556;2024-01-15T19:14:03;-1.40;99.90
20246;DHT22;10281;54.406;18.556;2024-01-15T19:16:31;-1.50;99.90
20246;DHT22;10281;54.406;18.556;2024-01-15T19:18:57;-1.60;99.90
20246;DHT22;10281;54.406;18.556;2024-01-15T19:21:24;-1.50;99.90
20246;DHT22;10281;54.406;18.556;2024-01-15T19:23:50;-1.60;99.90
20246;DHT22;10281;54.406;18.556;2024-01-15T19:26:19;-1.60;99.90
20246;DHT22;10281;54.406;18.556;2024-01-15T19:28:46;-1.50;99.90
20246;DHT22;10281;54.406;18.556;2024-01-15T19:31:13;-1.50;99.90
20246;DHT22;10281;54.406;18.556;2024-01-15T19:33:40;-1.60;99.90
20246;DHT22;10281;54.406;18.556;2024-01-15T19:36:07;-1.70;99.90
20246;DHT22;10281;54.406;18.556;2024-01-15T19:38:34;-1.80;99.90
20246;DHT22;10281;54.406;18.556;2024-01-15T19:41:00;-1.80;99.90
20246;DHT22;10281;54.406;18.556;2024-01-15T19:43:28;-1.80;99.90
20246;DHT22;10281;54.406;18.556;2024-01-15T19:45:55;-1.80;99.90
20246;DHT22;10281;54.406;18.556;2024-01-15T19:48:22;-1.80;99.90
20246;DHT22;10281;54.406;18.556;2024-01-15T19:50:48;-1.80;99.90
20246;DHT22;10281;54.406;18.556;2024-01-15T19:53:15;-1.80;99.90
20246;DHT22;10281;54.406;18.556;2024-01-15T19:55:41;-1.80;99.90
20246;DHT22;10281;54.406;18.556;2024-01-15T19:58:08;-1.80;99.90
20246;DHT22;10281;54.406;18.556;2024-01-15T20:00:35;-1.80;99.90
20246;DHT22;10281;54.406;18.556;2024-01-15T20:03:02;-2.00;99.90
20246;DHT22;10281;54.406;18.556;2024-01-15T20:05:28;-1.90;99.90
20246;DHT22;10281;54.406;18.556;2024-01-15T20:07:56;-1.90;99.90
20246;DHT22;10281;54.406;18.556;2024-01-15T20:10:22;-2.00;99.90
20246;DHT22;10281;54.406;18.556;2024-01-15T20:12:51;-2.10;99.90
20246;DHT22;10281;54.406;18.556;2024-01-15T20:15:18;-2.10;99.90
20246;DHT22;10281;54.406;18.556;2024-01-15T20:17:44;-2.20;99.90
20246;DHT22;10281;54.406;18.556;2024-01-15T20:20:11;-2.20;99.90
20246;DHT22;10281;54.406;18.556;2024-01-15T20:22:37;-2.20;99.90
20246;DHT22;10281;54.406;18.556;2024-01-15T20:25:04;-2.10;99.90
20246;DHT22;10281;54.406;18.556;2024-01-15T20:27:34;-2.10;99.90
20246;DHT22;10281;54.406;18.556;2024-01-15T20:30:01;-2.10;99.90
20246;DHT22;10281;54.406;18.556;2024-01-15T20:32:29;-2.20;99.90
20246;DHT22;10281;54.406;18.556;2024-01-15T20:34:57;-2.20;99.90
20246;DHT22;10281;54.406;18.556;2024-01-15T20:37:23;-2.20;99.90
20246;DHT22;10281;54.406;18.556;2024-01-15T20:39:50;-2.20;99.90
20246;DHT22;10281;54.406;18.556;2024-01-15T20:42:17;-2.20;99.90
20246;DHT22;10281;54.406;18.556;2024-01-15T20:44:45;-2.20;99.90
20246;DHT22;10281;54.406;18.556;2024-01-15T20:47:11;-2.30;99.90
20246;DHT22;10281;54.406;18.556;2024-01-15T20:49:38;-2.30;99.90
20246;DHT22;10281;54.406;18.556;2024-01-15T20:52:06;-2.30;99.90
20246;DHT22;10281;54.406;18.556;2024-01-15T20:54:33;-2.30;99.90
20246;DHT22;10281;54.406;18.556;2024-01-15T20:56:59;-2.20;99.90
20246;DHT22;10281;54.406;18.556;2024-01-15T20:59:27;-2.10;99.90
20246;DHT22;10281;54.406;18.556;2024-01-15T21:01:54;-2.20;99.90
20246;DHT22;10281;54.406;18.556;2024-01-15T21:04:21;-2.20;99.90
20246;DHT22;10281;54.406;18.556;2024-01-15T21:06:48;-2.10;99.90
20246;DHT22;10281;54.406;18.556;2024-01-15T21:09:14;-2.10;99.90
20246;DHT22;10281;54.406;18.556;2024-01-15T21:11:41;-2.20;99.90
20246;DHT22;10281;54.406;18.556;2024-01-15T21:14:08;-2.20;99.90
20246;DHT22;10281;54.406;18.556;2024-01-15T21:16:34;-2.20;99.90
